Valladolid

latitud = 41° 39' 8''N | longitud = 004° 43' 24''W
690 metros sobre el nivel del mar | datos mensuales

Fecha, hora, temperatura, viento dirección y velocidad, humedad y presión.

  • 16-08-2018 02:00:00 | 20.20°C | Norte |3.00 km/h | 41.00% | 931.80 hPa
  • 16-08-2018 01:00:00 | 21.30°C | Norte |4.00 km/h | 34.00% | 931.80 hPa
  • 16-08-2018 00:00:00 | 22.70°C | Noroeste |4.00 km/h | 29.00% | 931.60 hPa
  • 15-08-2018 23:00:00 | 23.90°C | Norte |4.00 km/h | 26.00% | 931.60 hPa
  • 15-08-2018 22:00:00 | 25.90°C | Oeste |5.00 km/h | 25.00% | 931.20 hPa
  • 15-08-2018 21:00:00 | 28.60°C | Norte |4.00 km/h | 20.00% | 930.80 hPa
  • 15-08-2018 20:00:00 | 31.40°C | Noroeste |3.00 km/h | 16.00% | 930.40 hPa
  • 15-08-2018 19:00:00 | 32.00°C | Oeste |5.00 km/h | 15.00% | 930.90 hPa
  • 15-08-2018 18:00:00 | 31.80°C | Noroeste |5.00 km/h | 15.00% | 931.30 hPa
  • 15-08-2018 17:00:00 | 32.00°C | Oeste |5.00 km/h | 14.00% | 931.70 hPa
  • 15-08-2018 16:00:00 | 30.80°C | Noroeste |6.00 km/h | 18.00% | 932.20 hPa
  • 15-08-2018 15:00:00 | 29.20°C | Noroeste |4.00 km/h | 23.00% | 932.90 hPa
  • 15-08-2018 14:00:00 | 27.40°C | Nordeste |6.00 km/h | 30.00% | 933.40 hPa
  • 15-08-2018 13:00:00 | 25.50°C | Norte |7.00 km/h | 35.00% | 933.80 hPa
  • 15-08-2018 12:00:00 | 23.30°C | Nordeste |5.00 km/h | 41.00% | 934.20 hPa
  • 15-08-2018 11:00:00 | 20.30°C | Norte |5.00 km/h | 54.00% | 934.50 hPa
  • 15-08-2018 10:00:00 | 17.60°C | Nordeste |4.00 km/h | 64.00% | 934.60 hPa
  • 15-08-2018 09:00:00 | 15.20°C | Norte |5.00 km/h | 73.00% | 934.90 hPa
  • 15-08-2018 08:00:00 | 13.30°C | Norte |4.00 km/h | 81.00% | 934.70 hPa
  • 15-08-2018 07:00:00 | 13.50°C | Norte |3.00 km/h | 80.00% | 934.90 hPa
  • 15-08-2018 06:00:00 | 13.90°C | Nordeste |5.00 km/h | 78.00% | 934.80 hPa
  • 15-08-2018 05:00:00 | 14.50°C | Norte |6.00 km/h | 75.00% | 935.10 hPa
  • 15-08-2018 04:00:00 | 14.90°C | Norte |4.00 km/h | 73.00% | 935.60 hPa
  • 15-08-2018 03:00:00 | 15.50°C | Norte |5.00 km/h | 71.00% | 935.90 hPa